Time;durP1;ratioP1;P1;durP2;ratioP2;P2;SDS_P1;SDS_P2;PMS_P1;PMS_P2;Temp;Humidity;BMP_temperature;BMP_pressure;BME280_temperature;BME280_humidity;BME280_pressure;Samples;Min_cycle;Max_cycle;Signal;HPM_P1;HPM_P2
2022/02/04 00:20:38;;;;;;;19.12;7.67;;;;;;;1.09;68.45;97119.03;1681608;85;25726;-82
2022/02/04 00:25:53;;;;;;;14.65;7.28;;;;;;;1.14;68.98;97123.05;1683390;84;27439;-82
2022/02/04 00:28:18;;;;;;;11.12;6.03;;;;;;;1.12;69.51;97123.70;1681995;85;25781;-83
2022/02/04 00:30:45;;;;;;;18.17;6.83;;;;;;;1.16;69.94;97126.38;1683523;85;25754;-82
2022/02/04 00:33:10;;;;;;;17.42;6.92;;;;;;;1.15;70.40;97128.70;1683697;85;26539;-82
2022/02/04 00:38:25;;;;;;;20.92;7.08;;;;;;;1.13;70.96;97120.89;1684287;84;28336;-82
2022/02/04 00:40:49;;;;;;;20.92;8.50;;;;;;;1.13;71.21;97121.38;1683035;84;25343;-82
2022/02/04 00:43:16;;;;;;;25.00;11.53;;;;;;;1.13;71.38;97124.88;1683885;84;25861;-82
2022/02/04 00:45:50;;;;;;;15.18;6.90;;;;;;;1.09;71.79;97120.86;1684280;84;25697;-83
2022/02/04 00:48:27;;;;;;;17.32;6.53;;;;;;;0.98;71.98;97123.30;1683366;85;25496;-82
2022/02/04 00:53:38;;;;;;;19.10;8.18;;;;;;;0.94;72.57;97114.00;1684423;85;25707;-82
2022/02/04 00:56:14;;;;;;;20.97;10.10;;;;;;;0.93;72.79;97105.69;1681516;85;26323;-82
2022/02/04 01:26:09;;;;;;;30.15;11.25;;;;;;;1.02;74.15;97064.85;1699563;84;25746;-82
2022/02/04 01:28:37;;;;;;;18.48;7.92;;;;;;;1.05;74.25;97059.23;1702666;84;25695;-82
2022/02/04 01:31:06;;;;;;;31.62;11.35;;;;;;;1.06;74.30;97060.89;1702885;84;27413;-82
2022/02/04 01:33:33;;;;;;;41.53;12.98;;;;;;;1.06;74.41;97055.58;1702811;84;25689;-82
2022/02/04 01:36:01;;;;;;;30.55;9.58;;;;;;;1.04;74.45;97041.61;1702885;84;25820;-82
2022/02/04 01:38:29;;;;;;;18.57;7.70;;;;;;;1.04;74.58;97036.30;1702843;84;26295;-81
2022/02/04 01:40:58;;;;;;;12.55;5.50;;;;;;;1.05;74.62;97037.13;1702896;84;26325;-82
2022/02/04 01:43:25;;;;;;;9.65;4.55;;;;;;;1.03;74.67;97033.80;1702899;84;28162;-82
2022/02/04 01:45:55;;;;;;;33.53;11.60;;;;;;;1.03;74.72;97029.31;1702790;84;25814;-82
2022/02/04 01:48:22;;;;;;;13.18;5.92;;;;;;;1.03;74.77;97017.34;1702598;84;25809;-82
2022/02/04 01:50:51;;;;;;;14.03;5.80;;;;;;;1.01;74.85;97020.66;1702866;84;25800;-82
2022/02/04 01:53:27;;;;;;;12.68;5.40;;;;;;;0.99;74.93;97016.00;1702843;84;25832;-82
2022/02/04 01:55:49;;;;;;;10.30;3.98;;;;;;;0.99;75.06;97012.02;1702536;84;27400;-82
2022/02/04 01:58:16;;;;;;;19.73;12.13;;;;;;;1.01;75.01;97004.72;1702729;84;25279;-82
2022/02/04 02:00:42;;;;;;;8.43;4.33;;;;;;;1.02;75.01;97006.37;1702862;84;25694;-82
2022/02/04 02:03:09;;;;;;;30.55;7.17;;;;;;;1.07;74.90;97000.09;1702702;84;25942;-82
2022/02/04 02:05:36;;;;;;;27.60;8.38;;;;;;;1.08;74.87;97000.44;1702961;84;25703;-83
2022/02/04 02:08:15;;;;;;;36.42;10.48;;;;;;;1.07;74.85;96998.77;1702840;84;28258;-83
2022/02/04 02:10:44;;;;;;;14.63;5.37;;;;;;;1.08;74.92;96989.80;1702828;84;25733;-83
2022/02/04 02:38:50;;;;;;;10.90;3.92;;;;;;;1.21;75.27;96948.62;1685794;85;25971;-83
2022/02/04 02:43:12;;;;;;;33.70;9.80;;;;;;;1.26;75.28;96947.11;1685810;84;25855;-82
2022/02/04 02:58:14;;;;;;;48.30;14.23;;;;;;;1.39;75.40;96938.65;1630811;85;25781;-83
2022/02/04 03:03:14;;;;;;;15.45;6.22;;;;;;;1.43;75.40;96941.32;1685758;85;25854;-83
2022/02/04 03:05:41;;;;;;;12.63;5.87;;;;;;;1.39;75.38;96940.81;1685791;85;25743;-83
2022/02/04 03:08:07;;;;;;;14.90;5.85;;;;;;;1.40;75.37;96942.97;1685782;85;25770;-82
2022/02/04 03:10:34;;;;;;;15.72;6.08;;;;;;;1.42;75.41;96940.98;1685867;84;25298;-83
2022/02/04 03:13:00;;;;;;;15.83;7.87;;;;;;;1.43;75.42;96943.48;1685738;84;27393;-82
2022/02/04 03:15:27;;;;;;;17.75;9.00;;;;;;;1.39;75.35;96939.48;1685770;84;25735;-83
2022/02/04 03:17:58;;;;;;;21.42;10.20;;;;;;;1.36;75.24;96938.47;1685696;84;26228;-83
2022/02/04 03:20:25;;;;;;;17.80;9.80;;;;;;;1.38;75.24;96934.33;1677035;85;26396;-84
2022/02/04 03:22:53;;;;;;;19.42;9.28;;;;;;;1.34;75.12;96929.83;1673738;85;25606;-83
2022/02/04 03:25:22;;;;;;;20.92;10.58;;;;;;;1.35;75.08;96931.98;1677908;84;27452;-84
2022/02/04 03:27:52;;;;;;;20.88;10.13;;;;;;;1.32;75.08;96928.36;1749543;82;25769;-83
2022/02/04 03:30:23;;;;;;;35.35;15.08;;;;;;;1.32;75.02;96929.69;1749426;81;25860;-83
2022/02/04 03:32:57;;;;;;;24.55;12.47;;;;;;;1.32;75.02;96925.69;1748821;81;25935;-83
2022/02/04 03:35:19;;;;;;;23.80;11.97;;;;;;;1.36;75.09;96925.67;1747603;81;25782;-83
2022/02/04 03:37:43;;;;;;;20.30;10.50;;;;;;;1.34;74.97;96927.16;1749132;81;27468;-83
2022/02/04 03:40:10;;;;;;;21.10;9.85;;;;;;;1.33;74.99;96923.34;1749849;81;25745;-83
2022/02/04 03:42:37;;;;;;;21.27;9.55;;;;;;;1.34;74.92;96923.17;1749897;81;25223;-82
2022/02/04 03:45:04;;;;;;;37.42;15.75;;;;;;;1.34;74.92;96923.17;1749790;81;25813;-83
2022/02/04 03:47:30;;;;;;;20.60;10.85;;;;;;;1.35;74.95;96916.03;1749859;81;25786;-83
2022/02/04 03:49:57;;;;;;;16.75;10.90;;;;;;;1.36;75.00;96913.70;1749879;81;27404;-82
2022/02/04 03:52:23;;;;;;;38.48;16.85;;;;;;;1.38;74.94;96909.06;1749792;81;25825;-83
2022/02/04 03:54:50;;;;;;;34.35;13.80;;;;;;;1.40;74.93;96908.41;1749776;81;25686;-83
2022/02/04 03:57:17;;;;;;;22.05;10.43;;;;;;;1.41;74.89;96907.41;1749836;81;26436;-83
2022/02/04 03:59:43;;;;;;;21.50;9.35;;;;;;;1.40;74.84;96900.42;1749815;81;25797;-84
2022/02/04 04:02:10;;;;;;;21.40;10.48;;;;;;;1.40;74.77;96899.09;1749825;81;28000;-84
2022/02/04 04:04:36;;;;;;;19.30;9.10;;;;;;;1.40;74.80;96898.59;1749716;81;25726;-83
2022/02/04 04:07:03;;;;;;;17.12;10.05;;;;;;;1.41;74.74;96895.44;1749819;81;25765;-83
2022/02/04 04:09:31;;;;;;;18.23;9.18;;;;;;;1.40;74.78;96896.44;1749849;81;26509;-83
2022/02/04 04:11:58;;;;;;;16.07;8.65;;;;;;;1.39;74.79;96898.76;1749815;81;25469;-83
2022/02/04 04:14:25;;;;;;;18.37;9.00;;;;;;;1.40;74.74;96900.42;1749677;81;27951;-83
2022/02/04 04:16:51;;;;;;;15.45;8.50;;;;;;;1.38;74.70;96899.25;1749764;81;25797;-83
2022/02/04 04:19:18;;;;;;;18.75;9.28;;;;;;;1.39;74.71;96899.59;1749693;81;25804;-83
2022/02/04 04:21:44;;;;;;;19.60;9.05;;;;;;;1.41;74.72;96901.59;1749502;81;25887;-83
2022/02/04 04:24:11;;;;;;;19.67;9.15;;;;;;;1.43;74.64;96896.11;1749685;81;25751;-84
2022/02/04 04:26:38;;;;;;;16.73;8.23;;;;;;;1.46;74.62;96894.42;1749543;81;27610;-83
2022/02/04 04:29:05;;;;;;;18.00;8.95;;;;;;;1.46;74.56;96894.42;1749668;81;25725;-84
2022/02/04 04:31:31;;;;;;;16.60;8.53;;;;;;;1.51;74.56;96896.59;1749697;81;26219;-83
2022/02/04 04:33:58;;;;;;;19.85;10.03;;;;;;;1.50;74.47;96894.42;1749752;81;26464;-84
2022/02/04 04:36:25;;;;;;;25.17;12.85;;;;;;;1.51;74.39;96897.42;1749819;82;25872;-84
2022/02/04 04:39:05;;;;;;;29.45;14.60;;;;;;;1.50;74.40;96894.42;1749783;82;28123;-83
2022/02/04 04:41:42;;;;;;;20.62;10.75;;;;;;;1.53;74.46;96897.27;1747654;81;25456;-83
2022/02/04 04:44:34;;;;;;;18.98;10.23;;;;;;;1.53;74.46;96884.80;1747215;82;25310;-83
2022/02/04 05:30:09;;;;;;;21.87;10.20;;;;;;;1.63;73.62;96848.69;1749835;81;25760;-82
2022/02/04 05:32:36;;;;;;;24.87;13.70;;;;;;;1.62;73.53;96847.86;1749777;81;27645;-82
2022/02/04 05:35:07;;;;;;;19.55;9.93;;;;;;;1.63;73.53;96855.34;1749505;81;25657;-82
2022/02/04 05:37:33;;;;;;;18.07;8.85;;;;;;;1.64;73.47;96855.18;1749604;81;25762;-81
2022/02/04 05:40:06;;;;;;;16.45;7.87;;;;;;;1.66;73.42;96853.69;1749856;81;26543;-83
2022/02/04 05:42:33;;;;;;;14.40;7.75;;;;;;;1.67;73.27;96846.87;1749203;81;25701;-82
2022/02/04 05:45:02;;;;;;;14.95;7.83;;;;;;;1.67;73.17;96842.88;1749575;81;26994;-83
2022/02/04 05:47:26;;;;;;;15.83;8.70;;;;;;;1.68;73.06;96850.36;1748980;81;25771;-82
2022/02/04 05:52:46;;;;;;;18.15;9.10;;;;;;;1.72;72.96;96847.67;1749882;81;25789;-82
2022/02/04 05:55:22;;;;;;;15.15;7.80;;;;;;;1.73;72.94;96855.48;1746924;81;25737;-82
2022/02/04 05:57:51;;;;;;;20.17;8.78;;;;;;;1.73;72.77;96847.50;1746437;81;27370;-82
2022/02/04 06:00:22;;;;;;;16.30;8.65;;;;;;;1.76;72.70;96851.66;1747110;81;25787;-82
2022/02/04 06:02:51;;;;;;;15.38;8.23;;;;;;;1.79;72.66;96858.81;1746439;81;25707;-83
2022/02/04 06:10:48;;;;;;;17.00;8.50;;;;;;;1.85;72.57;96864.44;1667975;85;26921;-82
2022/02/04 06:23:48;;;;;;;21.82;11.95;;;;;;;1.90;72.11;96856.79;1667993;85;27440;-83
2022/02/04 06:26:14;;;;;;;15.40;9.00;;;;;;;1.92;72.05;96862.77;1667865;85;25888;-82
2022/02/04 06:28:42;;;;;;;21.97;9.65;;;;;;;2.00;72.07;96858.75;1668085;85;25301;-82
2022/02/04 06:31:09;;;;;;;15.35;6.95;;;;;;;2.05;71.86;96858.55;1667954;85;25846;-82
2022/02/04 06:33:36;;;;;;;18.17;8.58;;;;;;;2.10;71.68;96866.03;1668073;85;25769;-82
2022/02/04 06:36:04;;;;;;;13.88;7.97;;;;;;;2.16;71.50;96869.36;1668008;85;27471;-82
2022/02/04 06:38:31;;;;;;;29.98;13.70;;;;;;;2.18;71.35;96862.00;1667874;85;25779;-82
2022/02/04 06:40:58;;;;;;;21.55;10.10;;;;;;;2.21;71.33;96859.00;1668007;85;25860;-82
2022/02/04 06:43:24;;;;;;;15.70;9.88;;;;;;;2.27;71.10;96868.98;1694493;81;25911;-82
2022/02/04 06:45:51;;;;;;;21.80;9.20;;;;;;;2.25;70.98;96861.66;1749791;81;25758;-82
2022/02/04 06:48:18;;;;;;;14.65;8.50;;;;;;;2.21;70.96;96861.66;1749570;82;27605;-82
2022/02/04 06:50:44;;;;;;;16.07;8.48;;;;;;;2.20;70.98;96866.66;1749154;81;25760;-82
2022/02/04 06:53:11;;;;;;;14.53;8.13;;;;;;;2.19;70.93;96862.33;1749770;81;25740;-80
2022/02/04 06:55:38;;;;;;;15.08;8.65;;;;;;;2.17;70.90;96863.03;1749811;81;25660;-82
2022/02/04 06:58:06;;;;;;;15.32;9.15;;;;;;;2.14;70.90;96859.38;1749843;81;25720;-82
2022/02/04 07:00:33;;;;;;;17.70;9.83;;;;;;;2.08;70.78;96863.53;1749775;81;27229;-82
2022/02/04 07:03:00;;;;;;;17.05;8.73;;;;;;;2.07;70.79;96871.69;1749787;81;25981;-81
2022/02/04 07:05:26;;;;;;;19.42;8.85;;;;;;;2.08;70.82;96865.37;1749810;81;25675;-82
2022/02/04 07:08:06;;;;;;;16.82;8.48;;;;;;;2.08;70.74;96860.05;1749849;81;26429;-81
2022/02/04 07:13:17;;;;;;;14.63;8.55;;;;;;;2.12;70.65;96865.36;1749585;82;27438;-82
2022/02/04 07:15:51;;;;;;;22.50;10.60;;;;;;;2.15;70.65;96867.70;1748199;82;25690;-82
2022/02/04 07:20:57;;;;;;;21.97;8.88;;;;;;;2.15;70.50;96860.54;1749788;81;25805;-82
2022/02/04 07:23:24;;;;;;;15.03;8.65;;;;;;;2.17;70.35;96865.70;1749261;81;25819;-82
2022/02/04 07:25:51;;;;;;;19.57;10.30;;;;;;;2.17;70.34;96861.70;1749288;81;28391;-82
2022/02/04 07:28:17;;;;;;;22.93;11.50;;;;;;;2.18;70.31;96871.31;1749483;81;25737;-82
2022/02/04 07:30:45;;;;;;;21.75;10.75;;;;;;;2.20;70.29;96866.66;1749823;81;25262;-82
2022/02/04 07:33:23;;;;;;;19.35;9.63;;;;;;;2.24;70.31;96873.31;1749861;81;26335;-82
2022/02/04 07:38:37;;;;;;;23.47;12.35;;;;;;;2.26;70.09;96868.64;1749508;81;25777;-82
2022/02/04 07:38:46;;;;;;;19.17;9.28;;;;;;;2.29;70.13;96875.47;1745294;81;27481;-82
2022/02/04 07:41:04;;;;;;;16.93;8.68;;;;;;;2.32;70.04;96881.26;1746601;81;25737;-82
2022/02/04 07:43:28;;;;;;;18.67;11.00;;;;;;;2.39;69.99;96881.41;1749370;81;25243;-82
2022/02/04 07:45:57;;;;;;;18.60;9.10;;;;;;;2.44;69.80;96879.05;1749873;81;26013;-82
2022/02/04 07:48:27;;;;;;;20.65;9.83;;;;;;;2.49;69.77;96874.03;1749918;81;25303;-82
2022/02/04 07:50:54;;;;;;;17.57;9.08;;;;;;;2.56;69.77;96876.32;1749769;81;28195;-82
2022/02/04 07:53:24;;;;;;;15.68;8.80;;;;;;;2.60;69.46;96874.15;1749710;81;25746;-82
2022/02/04 07:55:50;;;;;;;18.77;10.32;;;;;;;2.63;69.40;96875.14;1749706;81;25728;-82
2022/02/04 07:58:16;;;;;;;20.77;10.03;;;;;;;2.70;69.43;96879.58;1749864;81;25876;-83
2022/02/04 08:00:43;;;;;;;18.95;9.95;;;;;;;2.74;69.29;96880.07;1753330;81;25724;-82
2022/02/04 08:03:29;;;;;;;18.12;10.23;;;;;;;2.77;69.21;96878.40;1742698;81;27377;-82
2022/02/04 08:05:39;;;;;;;17.57;9.70;;;;;;;2.77;69.11;96877.89;1740414;81;25708;-82
2022/02/04 08:08:24;;;;;;;16.32;9.13;;;;;;;2.76;69.08;96877.56;1741129;82;25717;-82
2022/02/04 08:16:14;;;;;;;30.00;16.17;;;;;;;2.81;68.98;96882.34;1740978;81;27516;-82
2022/02/04 08:34:42;;;;;;;15.68;8.65;;;;;;;3.12;68.46;96887.17;1732586;82;25473;-85
2022/02/04 08:46:28;;;;;;;15.65;7.80;;;;;;;3.47;68.48;96888.89;1679850;85;25754;-83
2022/02/04 08:53:19;;;;;;;15.05;8.43;;;;;;;4.04;67.35;96877.67;1673083;85;25665;-85
2022/02/04 08:55:42;;;;;;;17.17;9.05;;;;;;;4.09;67.09;96879.30;1724382;82;28136;-85
2022/02/04 08:58:47;;;;;;;17.02;10.13;;;;;;;4.07;66.91;96874.64;1724057;83;25808;-85
2022/02/04 09:00:31;;;;;;;20.92;9.30;;;;;;;4.13;66.85;96884.58;1707760;83;25789;-84
2022/02/04 09:03:03;;;;;;;18.12;9.40;;;;;;;4.15;66.76;96882.55;1726883;83;25784;-84
2022/02/04 09:05:35;;;;;;;19.52;10.13;;;;;;;4.05;66.68;96890.02;1727334;82;26240;-84
2022/02/04 09:08:25;;;;;;;16.10;9.23;;;;;;;4.09;66.74;96884.64;1727299;83;27400;-84
2022/02/04 09:10:47;;;;;;;16.87;9.65;;;;;;;4.14;66.67;96883.56;1725610;83;25295;-84
2022/02/04 09:19:08;;;;;;;19.80;11.48;;;;;;;4.17;66.41;96873.86;1728084;82;25650;-83
2022/02/04 09:21:36;;;;;;;24.77;12.60;;;;;;;4.24;66.61;96881.44;1721019;82;27562;-83
2022/02/04 09:23:46;;;;;;;22.13;11.45;;;;;;;4.29;66.27;96869.70;1724317;83;26269;-83
2022/02/04 09:26:12;;;;;;;22.27;11.55;;;;;;;4.21;65.92;96869.81;1728051;83;25725;-84
2022/02/04 09:28:39;;;;;;;27.75;11.97;;;;;;;4.17;66.37;96866.67;1722816;82;26312;-84
2022/02/04 09:31:05;;;;;;;21.60;11.22;;;;;;;4.22;66.45;96874.98;1693191;84;25730;-84
2022/02/04 09:33:32;;;;;;;21.73;10.60;;;;;;;4.29;66.50;96874.55;1720526;83;27451;-84
2022/02/04 09:35:58;;;;;;;21.95;10.68;;;;;;;4.37;66.37;96879.45;1692779;84;26497;-84
2022/02/04 09:38:27;;;;;;;23.98;11.70;;;;;;;4.44;66.24;96875.87;1690134;84;25738;-83
2022/02/04 09:40:53;;;;;;;24.35;12.15;;;;;;;4.52;66.09;96870.92;1692992;84;25696;-84
2022/02/04 09:43:20;;;;;;;21.77;10.58;;;;;;;4.57;65.97;96866.70;1690214;84;25740;-84
2022/02/04 09:45:46;;;;;;;22.67;11.48;;;;;;;4.65;66.00;96871.92;1693130;84;27370;-84
2022/02/04 09:48:13;;;;;;;26.65;12.25;;;;;;;4.71;65.92;96867.15;1679786;84;25787;-85
2022/02/04 09:50:46;;;;;;;19.85;10.15;;;;;;;4.80;65.69;96867.06;1694832;84;25705;-86
2022/02/04 10:04:58;;;;;;;24.07;11.08;;;;;;;5.04;65.86;96867.55;1720163;83;25857;-84
2022/02/04 10:10:25;;;;;;;22.87;11.15;;;;;;;5.12;65.65;96845.17;1720618;82;26252;-84
2022/02/04 10:15:24;;;;;;;20.72;11.05;;;;;;;5.28;65.43;96838.24;1719942;83;26021;-84
2022/02/04 10:18:13;;;;;;;19.87;9.65;;;;;;;5.38;65.00;96838.74;1691644;84;25839;-84
2022/02/04 10:20:40;;;;;;;17.67;9.18;;;;;;;5.44;64.78;96831.27;1720260;83;26469;-83
2022/02/04 10:23:08;;;;;;;20.72;10.20;;;;;;;5.50;64.71;96835.03;1720181;83;25761;-84
2022/02/04 10:25:41;;;;;;;19.55;9.58;;;;;;;5.58;64.40;96831.37;1720530;82;27393;-84
2022/02/04 10:28:22;;;;;;;19.02;10.40;;;;;;;5.57;64.07;96824.36;1721420;83;25780;-84
2022/02/04 10:31:24;;;;;;;25.40;11.95;;;;;;;5.41;63.51;96820.14;1722626;82;26224;-84
2022/02/04 10:34:01;;;;;;;22.98;11.88;;;;;;;5.35;63.59;96817.70;1695689;84;26494;-84
2022/02/04 10:36:54;;;;;;;22.48;11.75;;;;;;;5.40;63.89;96821.98;1721584;81;25766;-84
2022/02/04 10:45:08;;;;;;;22.07;10.95;;;;;;;5.63;63.99;96816.91;1724621;83;25762;-84
2022/02/04 10:47:51;;;;;;;21.15;10.28;;;;;;;5.74;63.88;96817.70;1722856;82;26577;-84
2022/02/04 10:50:18;;;;;;;20.57;10.20;;;;;;;5.88;63.68;96808.77;1722589;82;25719;-84
2022/02/04 10:53:05;;;;;;;18.48;9.90;;;;;;;6.00;63.58;96805.86;1722516;82;27422;-84
2022/02/04 11:00:53;;;;;;;14.95;8.53;;;;;;;6.22;63.00;96807.11;1724364;83;26463;-83
2022/02/04 11:03:06;;;;;;;18.82;8.80;;;;;;;6.35;62.97;96803.16;1721766;83;25681;-83
2022/02/04 11:05:44;;;;;;;15.58;9.15;;;;;;;6.49;62.74;96802.19;1723686;82;28463;-83
2022/02/04 11:08:25;;;;;;;15.10;8.48;;;;;;;6.50;61.91;96806.52;1722632;82;25753;-83
2022/02/04 11:35:25;;;;;;;14.57;8.07;;;;;;;6.47;61.08;96776.08;1724762;83;25866;-83
2022/02/04 11:52:40;;;;;;;17.32;9.00;;;;;;;6.49;60.39;96765.99;1724695;81;25197;-83
2022/02/04 11:55:15;;;;;;;19.17;9.50;;;;;;;6.44;60.83;96759.05;1724310;81;25713;-83
2022/02/04 11:57:56;;;;;;;18.23;9.63;;;;;;;6.50;60.83;96758.27;1724635;81;25725;-84
2022/02/04 12:00:31;;;;;;;19.42;8.80;;;;;;;6.50;60.83;96760.43;1724607;83;27412;-83
2022/02/04 12:02:58;;;;;;;21.25;9.55;;;;;;;6.56;61.00;96766.83;1724536;83;25891;-84
2022/02/04 12:05:28;;;;;;;19.90;10.55;;;;;;;6.62;60.89;96768.72;1723916;83;25872;-83
2022/02/04 12:08:21;;;;;;;18.87;9.58;;;;;;;6.65;60.71;96772.31;1695499;84;26561;-83
2022/02/04 12:10:50;;;;;;;;;;;;;;;6.59;60.16;96771.80;1727203;83;25765;-83
2022/02/04 12:13:19;;;;;;;17.80;8.80;;;;;;;6.48;60.20;96757.63;1724298;83;27675;-82
2022/02/04 12:15:51;;;;;;;17.45;8.33;;;;;;;6.32;60.17;96762.82;1723989;81;25780;-83
2022/02/04 12:18:20;;;;;;;15.17;8.87;;;;;;;6.25;60.26;96759.81;1724203;83;25778;-82
2022/02/04 12:20:58;;;;;;;13.85;8.43;;;;;;;6.23;60.27;96761.35;1724514;83;25694;-82
2022/02/04 12:23:38;;;;;;;15.80;8.05;;;;;;;6.28;60.33;96758.08;1723005;83;25697;-82
2022/02/04 12:26:19;;;;;;;15.43;8.13;;;;;;;6.30;60.15;96764.05;1724250;82;27319;-82
2022/02/04 12:29:06;;;;;;;15.28;9.15;;;;;;;6.33;60.09;96758.29;1724505;82;26409;-84
2022/02/04 12:31:44;;;;;;;20.00;11.38;;;;;;;6.29;60.27;96755.17;1708407;83;25304;-81
2022/02/04 12:34:15;;;;;;;25.80;14.15;;;;;;;6.16;60.28;96751.64;1695491;83;25728;-84
2022/02/04 12:36:45;;;;;;;22.67;12.45;;;;;;;6.16;60.21;96746.28;1724528;81;25718;-82
2022/02/04 12:39:17;;;;;;;29.85;15.88;;;;;;;6.13;60.12;96749.67;1695449;84;27577;-82
2022/02/04 12:41:48;;;;;;;32.58;16.02;;;;;;;6.09;60.20;96747.58;1724320;83;26204;-82
2022/02/04 12:44:34;;;;;;;24.47;13.43;;;;;;;5.98;60.15;96754.84;1724704;83;25750;-83
2022/02/04 12:47:05;;;;;;;20.82;11.80;;;;;;;5.91;60.23;96754.81;1723986;81;26905;-81
2022/02/04 12:49:34;;;;;;;25.77;13.93;;;;;;;5.82;60.62;96753.27;1695694;84;25742;-82
2022/02/04 12:52:17;;;;;;;17.73;10.05;;;;;;;5.72;60.53;96742.92;1724610;83;27500;-82
2022/02/04 13:03:07;;;;;;;20.50;10.13;;;;;;;5.51;60.75;96737.64;1724191;83;25722;-82
2022/02/04 13:08:35;;;;;;;16.42;9.23;;;;;;;5.46;60.96;96733.88;1720445;83;25821;-83
2022/02/04 13:11:01;;;;;;;14.10;8.48;;;;;;;5.47;60.97;96735.54;1719066;82;25927;-84
2022/02/04 13:13:34;;;;;;;28.07;15.23;;;;;;;5.40;61.02;96739.02;1724042;83;26022;-83
2022/02/04 13:15:58;;;;;;;24.47;12.88;;;;;;;5.38;61.24;96737.55;1724268;82;25647;-82
2022/02/04 13:18:26;;;;;;;23.42;12.88;;;;;;;5.37;61.39;96738.05;1724464;81;27372;-82
2022/02/04 13:20:57;;;;;;;16.32;10.15;;;;;;;5.35;61.43;96736.08;1695389;83;25849;-83
2022/02/04 13:23:31;;;;;;;20.80;12.33;;;;;;;5.35;61.57;96744.11;1724538;81;25732;-82
2022/02/04 13:26:01;;;;;;;20.60;12.13;;;;;;;5.30;61.67;96740.38;1724459;81;25786;-82
2022/02/04 13:28:45;;;;;;;29.77;15.80;;;;;;;5.27;61.63;96738.91;1724454;81;25776;-82
2022/02/04 13:31:17;;;;;;;29.30;17.52;;;;;;;5.21;61.74;96731.64;1724359;83;27515;-83
2022/02/04 13:33:46;;;;;;;30.45;16.12;;;;;;;5.20;61.94;96735.84;1724399;82;25729;-82
2022/02/04 13:38:59;;;;;;;119.55;48.87;;;;;;;5.25;62.08;96732.92;1719719;82;26043;-82
2022/02/04 13:41:50;;;;;;;342.98;90.47;;;;;;;5.24;62.40;96731.77;1724278;82;25833;-82
2022/02/04 13:44:38;;;;;;;178.95;58.90;;;;;;;5.20;62.51;96729.98;1722665;82;27679;-82
2022/02/04 13:50:07;;;;;;;54.98;27.93;;;;;;;5.11;62.65;96731.16;1724577;82;25767;-82
2022/02/04 13:53:19;;;;;;;54.18;28.12;;;;;;;5.08;62.79;96729.69;1722383;82;25768;-81
2022/02/04 13:57:48;;;;;;;145.47;47.93;;;;;;;4.98;62.81;96732.38;1699596;82;27544;-82
2022/02/04 14:02:50;;;;;;;101.80;38.05;;;;;;;4.81;63.38;96734.52;1695115;83;25814;-82
2022/02/04 14:05:41;;;;;;;93.30;37.67;;;;;;;4.82;63.63;96727.32;1720349;82;25777;-81
2022/02/04 14:08:07;;;;;;;74.67;30.65;;;;;;;4.81;63.69;96735.02;1723666;81;25809;-83
2022/02/04 14:10:40;;;;;;;43.00;20.27;;;;;;;4.71;63.76;96733.47;1695690;84;28421;-81
2022/02/04 14:13:12;;;;;;;36.48;18.73;;;;;;;4.66;63.89;96730.56;1723976;82;25788;-82
2022/02/04 14:15:46;;;;;;;29.95;13.80;;;;;;;4.59;63.99;96734.99;1724671;83;25707;-83
2022/02/04 14:18:11;;;;;;;35.50;17.35;;;;;;;4.58;63.96;96723.19;1723379;81;26617;-82
2022/02/04 14:20:41;;;;;;;42.55;19.40;;;;;;;4.59;64.07;96723.47;1724662;83;25774;-82
2022/02/04 14:23:12;;;;;;;23.95;12.10;;;;;;;4.62;64.15;96727.94;1724564;82;27369;-83
2022/02/04 14:26:04;;;;;;;23.25;10.58;;;;;;;4.66;64.10;96731.07;1724465;83;25702;-84
2022/02/04 14:36:50;;;;;;;21.30;11.95;;;;;;;4.70;64.26;96725.16;1724617;81;28218;-83
2022/02/04 14:58:40;;;;;;;37.70;18.75;;;;;;;4.44;64.86;96717.38;1724712;81;25761;-84
2022/02/04 15:02:50;;;;;;;77.45;36.23;;;;;;;4.46;65.07;96716.17;1649161;86;28204;-82
2022/02/04 15:05:19;;;;;;;58.10;28.65;;;;;;;4.46;65.15;96716.17;1635203;87;25980;-83
2022/02/04 15:07:44;;;;;;;65.45;31.80;;;;;;;4.38;65.23;96714.94;1635361;87;25955;-83
2022/02/04 15:10:25;;;;;;;64.87;31.42;;;;;;;4.35;65.34;96726.00;1665945;86;25869;-83
2022/02/04 15:12:40;;;;;;;39.83;21.33;;;;;;;4.35;65.42;96723.33;1664649;86;25858;-83
2022/02/04 15:15:07;;;;;;;71.67;28.38;;;;;;;4.34;65.37;96731.05;1635510;87;27638;-83
2022/02/04 15:17:34;;;;;;;138.18;43.75;;;;;;;4.37;65.49;96721.30;1665916;85;25793;-83
2022/02/04 15:20:00;;;;;;;90.42;37.38;;;;;;;4.36;65.48;96726.32;1635556;87;25821;-83
2022/02/04 15:22:28;;;;;;;51.50;24.55;;;;;;;4.30;65.55;96724.42;1665936;85;25840;-83
2022/02/04 15:24:59;;;;;;;48.23;26.95;;;;;;;4.26;65.64;96729.30;1635582;87;25829;-82
2022/02/04 15:27:23;;;;;;;51.25;28.57;;;;;;;4.22;65.73;96728.55;1635167;87;27608;-83
2022/02/04 15:29:52;;;;;;;48.15;25.75;;;;;;;4.17;65.81;96721.09;1663356;85;25826;-82
2022/02/04 15:32:18;;;;;;;60.85;30.95;;;;;;;4.15;65.86;96724.45;1655848;86;25878;-84
2022/02/04 15:34:45;;;;;;;74.60;41.10;;;;;;;4.16;65.96;96726.61;1684090;84;25902;-82
2022/02/04 15:37:11;;;;;;;74.10;40.38;;;;;;;4.13;66.02;96723.80;1683836;85;25707;-83
2022/02/04 15:39:38;;;;;;;75.90;41.33;;;;;;;4.09;66.18;96729.73;1683613;84;28291;-83
2022/02/04 15:42:10;;;;;;;81.32;40.12;;;;;;;4.11;66.30;96733.02;1683695;85;25721;-83
2022/02/04 15:44:39;;;;;;;74.80;40.58;;;;;;;4.12;66.39;96732.00;1683375;85;25807;-82
2022/02/04 15:47:23;;;;;;;76.30;39.95;;;;;;;4.12;66.44;96730.66;1683304;85;26414;-82
2022/02/04 15:52:55;;;;;;;72.12;38.38;;;;;;;4.09;66.54;96740.41;1683487;85;27596;-82
2022/02/04 15:58:09;;;;;;;94.15;44.70;;;;;;;4.04;66.75;96752.14;1683598;85;26442;-82
2022/02/04 16:03:18;;;;;;;92.42;42.30;;;;;;;3.97;66.70;96746.73;1683749;85;25314;-84
2022/02/04 16:05:30;;;;;;;121.85;47.43;;;;;;;3.89;66.83;96744.98;1680845;84;28285;-81
2022/02/04 16:07:57;;;;;;;119.15;51.10;;;;;;;3.88;67.00;96754.50;1683722;85;25815;-81
2022/02/04 16:10:37;;;;;;;94.15;44.03;;;;;;;3.79;67.06;96752.45;1683800;85;25817;-81
2022/02/04 16:13:08;;;;;;;70.40;35.52;;;;;;;3.71;67.17;96741.88;1682308;85;25780;-84
2022/02/04 16:18:17;;;;;;;66.62;33.58;;;;;;;3.65;67.37;96737.26;1683551;84;26729;-83
2022/02/04 16:21:02;;;;;;;81.63;42.25;;;;;;;3.62;67.21;96736.31;1682656;85;25826;-83
2022/02/04 16:26:22;;;;;;;111.70;56.75;;;;;;;3.67;67.51;96741.91;1658253;84;25815;-83
2022/02/04 16:28:41;;;;;;;124.50;63.92;;;;;;;3.62;67.58;96737.65;1688132;84;25762;-82
2022/02/04 16:31:16;;;;;;;98.55;53.13;;;;;;;3.63;67.66;96739.27;1691427;83;28051;-85
2022/02/04 16:33:45;;;;;;;110.37;58.50;;;;;;;3.62;67.70;96734.98;1691344;84;25285;-82
2022/02/04 16:36:15;;;;;;;153.75;80.03;;;;;;;3.62;67.80;96737.65;1691669;84;25696;-83
2022/02/04 16:38:51;;;;;;;121.75;59.63;;;;;;;3.64;67.90;96739.60;1691605;84;25775;-82
2022/02/04 16:41:18;;;;;;;154.42;78.15;;;;;;;3.60;67.90;96741.83;1691025;84;25511;-83
2022/02/04 16:43:41;;;;;;;175.42;88.35;;;;;;;3.57;67.99;96741.36;1690920;84;28270;-83
2022/02/04 16:46:08;;;;;;;147.98;70.45;;;;;;;3.57;68.03;96742.19;1691630;84;25758;-83
2022/02/04 16:48:37;;;;;;;121.62;62.75;;;;;;;3.54;68.09;96747.89;1691381;84;25712;-83
2022/02/04 16:51:05;;;;;;;110.88;54.23;;;;;;;3.51;68.19;96742.91;1691599;84;25795;-83
2022/02/04 16:53:34;;;;;;;114.20;57.62;;;;;;;3.38;68.22;96744.58;1691696;84;25738;-82
2022/02/04 16:56:01;;;;;;;133.05;63.13;;;;;;;3.34;68.40;96737.44;1691371;84;27506;-83
2022/02/04 16:58:27;;;;;;;121.82;57.80;;;;;;;3.33;68.56;96730.95;1691563;84;25273;-83
2022/02/04 17:00:55;;;;;;;135.25;61.80;;;;;;;3.30;68.60;96730.80;1691703;84;25691;-82
2022/02/04 17:03:22;;;;;;;121.00;60.10;;;;;;;3.30;68.68;96727.30;1691592;84;25881;-83
2022/02/04 17:05:52;;;;;;;129.90;61.92;;;;;;;3.24;68.73;96731.04;1691728;84;25751;-83
2022/02/04 17:08:46;;;;;;;141.65;67.45;;;;;;;3.22;68.81;96720.22;1691320;83;27445;-82
2022/02/04 17:10:54;;;;;;;117.97;57.38;;;;;;;3.17;68.91;96721.27;1685422;84;25745;-82
2022/02/04 17:13:22;;;;;;;108.60;50.48;;;;;;;3.12;68.97;96719.16;1691328;84;25671;-82
2022/02/04 17:15:46;;;;;;;118.67;52.88;;;;;;;3.13;69.02;96710.16;1691126;84;26699;-83
2022/02/04 17:18:13;;;;;;;110.20;51.35;;;;;;;3.19;69.05;96708.58;1691765;84;25710;-82
2022/02/04 17:20:40;;;;;;;64.87;28.85;;;;;;;3.26;69.06;96704.98;1691588;84;27446;-82